Millbrook, AL (36054)

9:30 AM CDT on October 02, 2014 (GMT -0500)
Robinson Springs | Change Station
CLOSE
Current Station
Personal Weather Station
Location: Millbrook, AL
Elevation: 300 ft
Nearby Weather Stations

Elev 300 ft 32.52 °N, 86.36 °W | Updated 39 seconds ago

Partly Cloudy
Partly Cloudy
80.4 °F
Feels Like 85 °F
N
0.1
Wind Variable Wind from SE
Gusts 0.1 mph

Today
High -- | Low -- °F
--% Chance of Precip.
Yesterday
High -- | Low -- °F
Precip. -- in
6:40 AM 6:28 PM
First Quarter, 59% visible
Pressure 30.09 in
Visibility 10.0 miles
Clouds Few 10000 ft
Heat Index 85 °F
Dew Point 73 °F
Humidity 77%
Rainfall 0.00 in
Snow Depth Not available.
UV 2 out of 12
Pollen 5.40 out of 12
Ozone Good
PM2.5 Moderate
Flu Activity Not available.
METAR KMXF 021358Z AUTO VRB02KT 10SM FEW100 24/20 A3008 RMK AO2 SLP188 T02350196

More Conditions Fewer Conditions

Pressure 30.09 in
Visibility 10.0 miles
Clouds Few 10000 ft
Heat Index 85 °F
Dew Point 73 °F
Humidity 77%
Rainfall 0.00 in
Snow Depth Not available.
UV 2 out of 12
Pollen 5.40 out of 12
Ozone Good
PM2.5 Moderate
Flu Activity Not available.
METAR KMXF 021358Z AUTO VRB02KT 10SM FEW100 24/20 A3008 RMK AO2 SLP188 T02350196

More Conditions Fewer Conditions

10-Day Weather Forecast

Almanac

Astronomy

Oct. 02, 2014 Rise Set
Actual Time 6:40 AM CDT 6:28 PM CDT
Civil Twilight 6:15 AM CDT 6:53 PM CDT
Nautical Twilight 5:47 AM CDT 7:21 PM CDT
Astronomical Twilight 5:18 AM CDT 7:50 PM CDT
Moon 2:17 PM CDT 12:14 AM CDT
Length of Visible Light 12h 37m
Length of Day
11h 48m
Tomorrow will be 1m 58s shorter.
First Quarter, 59% of the Moon is Illuminated
Today
First Quarter
Oct 8
Full
Oct 15
Last Quarter
Oct 23
New
Oct 30
First Quarter

Today's Extremes

State Highs State Lows

Community

WunderPhotos

Upload Photos

1,758,255 photos uploaded!

WunderBlogs® & News

By Dr. Jeff Masters
Director of Meteorology, Weather Underground
By Kari Strenfel
Meteorologist, Weather Underground
By Christopher C. Burt
Weather Historian, Weather Underground
October 2, 2014
October 2, 2014
October 2, 2014

Nearby

Air Quality

  Air Quality AQ Index Pollutant
Yesterday Good
PM10
Yesterday Good
OZONE
Current Moderate
PM2.5
Current Good
OZONE
Thursday Moderate
PM2.5
Thursday Good
OZONE

Snow Depth

Station Depth Elevation
No new snow has been reported.

Earthquake Activity

City Distance Mag. Time & Date
No recent earthquake activity has been reported nearby.
Minimum magnitude displayed is 2.5.

Coastal Water Temperatures

Place Temperature
No Stations Reporting

Nearby Weather Stations